createdAt,value
2018-04-11T00:00:46.658Z,965.90
2018-04-11T00:01:46.897Z,965.87
2018-04-11T00:02:47.139Z,965.88
2018-04-11T00:03:47.376Z,965.89
2018-04-11T00:04:47.616Z,965.87
2018-04-11T00:05:47.856Z,965.86
2018-04-11T00:06:48.096Z,965.92
2018-04-11T00:07:48.334Z,965.93
2018-04-11T00:08:48.574Z,965.85
2018-04-11T00:09:48.822Z,965.88
2018-04-11T00:10:49.055Z,965.90
2018-04-11T00:11:49.295Z,965.94
2018-04-11T00:12:49.533Z,965.87
2018-04-11T00:13:49.773Z,965.90
2018-04-11T00:14:50.012Z,965.86
2018-04-11T00:15:50.255Z,965.86
2018-04-11T00:16:50.492Z,965.89
2018-04-11T00:17:50.733Z,965.89
2018-04-11T00:18:50.970Z,965.86
2018-04-11T00:19:51.211Z,965.84
2018-04-11T00:20:51.451Z,965.87
2018-04-11T00:21:51.692Z,965.84
2018-04-11T00:22:51.931Z,965.85
2018-04-11T00:23:52.172Z,965.86
2018-04-11T00:24:52.413Z,965.83
2018-04-11T00:25:52.651Z,965.83
2018-04-11T00:26:52.894Z,965.86
2018-04-11T00:27:53.135Z,965.84
2018-04-11T00:28:53.375Z,965.83
2018-04-11T00:29:53.613Z,965.78
2018-04-11T00:30:53.852Z,965.78
2018-04-11T00:31:54.091Z,965.80
2018-04-11T00:32:54.330Z,965.77
2018-04-11T00:33:54.569Z,965.82
2018-04-11T00:34:54.808Z,965.83
2018-04-11T00:35:55.048Z,965.84
2018-04-11T00:36:55.285Z,965.87
2018-04-11T00:37:55.527Z,965.88
2018-04-11T00:38:55.767Z,965.89
2018-04-11T00:39:56.007Z,965.92
2018-04-11T00:40:56.246Z,965.92
2018-04-11T00:41:56.485Z,965.91
2018-04-11T00:42:56.726Z,965.88
2018-04-11T00:43:56.965Z,965.86
2018-04-11T00:44:57.203Z,965.86
2018-04-11T00:45:57.454Z,965.84
2018-04-11T00:46:57.685Z,965.82
2018-04-11T00:47:57.925Z,965.79
2018-04-11T00:48:58.164Z,965.80
2018-04-11T00:49:58.404Z,965.82
2018-04-11T00:50:58.643Z,965.80
2018-04-11T00:51:58.884Z,965.86
2018-04-11T00:52:59.123Z,965.90
2018-04-11T00:53:59.364Z,965.87
2018-04-11T00:54:59.604Z,965.91
2018-04-11T00:55:59.844Z,965.88
2018-04-11T00:57:00.084Z,965.93
2018-04-11T00:58:00.324Z,965.85
2018-04-11T00:59:00.565Z,965.85
2018-04-11T01:00:00.802Z,965.79
2018-04-11T01:01:01.041Z,965.77
2018-04-11T01:02:01.282Z,965.82
2018-04-11T01:03:01.522Z,965.84
2018-04-11T01:04:01.762Z,965.87
2018-04-11T01:05:02.001Z,965.88
2018-04-11T01:06:02.248Z,965.85
2018-04-11T01:07:02.485Z,965.87
2018-04-11T01:08:02.719Z,965.84
2018-04-11T01:09:02.957Z,965.85
2018-04-11T01:10:03.197Z,965.84
2018-04-11T01:11:03.436Z,965.81
2018-04-11T01:12:03.678Z,965.87
2018-04-11T01:13:03.916Z,965.88
2018-04-11T01:14:04.159Z,965.87
2018-04-11T01:15:04.398Z,965.86
2018-04-11T01:16:04.648Z,965.85
2018-04-11T01:17:04.887Z,965.85
2018-04-11T01:18:05.134Z,965.84
2018-04-11T01:19:05.366Z,965.85
2018-04-11T01:20:05.615Z,965.86
2018-04-11T01:21:05.845Z,965.86
2018-04-11T01:22:06.082Z,965.87
2018-04-11T01:23:06.326Z,965.87
2018-04-11T01:24:06.564Z,965.90
2018-04-11T01:25:06.804Z,965.89
2018-04-11T01:26:07.048Z,965.87
2018-04-11T01:27:07.283Z,965.85
2018-04-11T01:28:07.524Z,965.86
2018-04-11T01:29:07.770Z,965.86
2018-04-11T01:30:08.006Z,965.85
2018-04-11T01:31:08.247Z,965.85
2018-04-11T01:32:08.489Z,965.83
2018-04-11T01:33:08.725Z,965.82
2018-04-11T01:34:08.965Z,965.75
2018-04-11T01:35:09.204Z,965.74
2018-04-11T01:36:09.447Z,965.71
2018-04-11T01:37:09.683Z,965.70
2018-04-11T01:38:09.913Z,965.72
2018-04-11T01:39:10.154Z,965.73
2018-04-11T01:40:10.400Z,965.75
2018-04-11T01:41:10.636Z,965.73
2018-04-11T01:42:10.875Z,965.73
2018-04-11T01:43:11.119Z,965.73
2018-04-11T01:44:11.355Z,965.70
2018-04-11T01:45:11.595Z,965.69
2018-04-11T01:46:11.840Z,965.72
2018-04-11T01:47:12.076Z,965.66
2018-04-11T01:48:12.316Z,965.68
2018-04-11T01:49:12.559Z,965.72
2018-04-11T01:50:12.803Z,965.70
2018-04-11T01:51:13.040Z,965.69
2018-04-11T01:52:13.285Z,965.71
2018-04-11T01:53:13.519Z,965.70
2018-04-11T01:54:13.759Z,965.67
2018-04-11T01:55:14.000Z,965.68
2018-04-11T01:56:14.239Z,965.70
2018-04-11T01:57:14.481Z,965.68
2018-04-11T01:58:14.720Z,965.67
2018-04-11T01:59:14.962Z,965.67
2018-04-11T02:00:15.204Z,965.66
2018-04-11T02:01:15.444Z,965.69
2018-04-11T02:02:15.685Z,965.73
2018-04-11T02:03:15.925Z,965.74
2018-04-11T02:04:16.166Z,965.71
2018-04-11T02:05:16.408Z,965.65
2018-04-11T02:06:16.650Z,965.66
2018-04-11T02:07:16.890Z,965.66
2018-04-11T02:08:17.176Z,965.66
2018-04-11T02:09:17.371Z,965.65
2018-04-11T02:10:17.614Z,965.65
2018-04-11T02:11:17.853Z,965.69
2018-04-11T02:12:18.094Z,965.70
2018-04-11T02:13:18.332Z,965.67
2018-04-11T02:14:18.576Z,965.67
2018-04-11T02:15:18.816Z,965.68
2018-04-11T02:16:19.059Z,965.65
2018-04-11T02:17:19.297Z,965.65
2018-04-11T02:18:19.537Z,965.63
2018-04-11T02:19:19.778Z,965.64
2018-04-11T02:20:20.018Z,965.65
2018-04-11T02:21:20.260Z,965.64
2018-04-11T02:22:20.500Z,965.60
2018-04-11T02:23:20.747Z,965.64
2018-04-11T02:24:20.983Z,965.66
2018-04-11T02:25:21.224Z,965.66
2018-04-11T02:26:21.465Z,965.67
2018-04-11T02:27:21.706Z,965.65
2018-04-11T02:28:21.947Z,965.68
2018-04-11T02:29:22.190Z,965.68
2018-04-11T02:30:22.430Z,965.70
2018-04-11T02:31:22.683Z,965.69
2018-04-11T02:32:22.915Z,965.66
2018-04-11T02:33:23.158Z,965.66
2018-04-11T02:34:23.398Z,965.65
2018-04-11T02:35:23.637Z,965.62
2018-04-11T02:36:23.878Z,965.67
2018-04-11T02:37:24.120Z,965.68
2018-04-11T02:38:24.361Z,965.69
2018-04-11T02:39:24.603Z,965.69
2018-04-11T02:40:24.842Z,965.66
2018-04-11T02:41:25.085Z,965.71
2018-04-11T02:42:25.325Z,965.66
2018-04-11T02:43:25.566Z,965.64
2018-04-11T02:44:25.809Z,965.63
2018-04-11T02:45:26.051Z,965.64
2018-04-11T02:46:26.291Z,965.61
2018-04-11T02:47:26.531Z,965.61
2018-04-11T02:48:26.773Z,965.61
2018-04-11T02:49:27.013Z,965.61
2018-04-11T02:50:27.254Z,965.63
2018-04-11T02:51:27.495Z,965.61
2018-04-11T02:52:27.740Z,965.67
2018-04-11T02:53:27.976Z,965.64
2018-04-11T02:54:28.217Z,965.65
2018-04-11T02:55:28.459Z,965.64
2018-04-11T02:56:28.702Z,965.63
2018-04-11T02:57:28.945Z,965.66
2018-04-11T02:58:29.185Z,965.66
2018-04-11T02:59:29.427Z,965.66
2018-04-11T03:00:29.668Z,965.67
2018-04-11T03:01:29.911Z,965.68
2018-04-11T03:02:30.151Z,965.63
2018-04-11T03:03:30.397Z,965.63
2018-04-11T03:04:30.634Z,965.63
2018-04-11T03:05:30.881Z,965.62
2018-04-11T03:06:31.117Z,965.63
2018-04-11T03:07:31.359Z,965.61
2018-04-11T03:08:31.600Z,965.62
2018-04-11T03:09:31.841Z,965.59
2018-04-11T03:10:32.084Z,965.59
2018-04-11T03:11:32.324Z,965.57
2018-04-11T03:12:32.565Z,965.61
2018-04-11T03:13:32.806Z,965.60
2018-04-11T03:14:33.048Z,965.70
2018-04-11T03:15:33.289Z,965.71
2018-04-11T03:16:33.532Z,965.70
2018-04-11T03:17:33.773Z,965.72
2018-04-11T03:18:34.013Z,965.73
2018-04-11T03:19:34.255Z,965.71
2018-04-11T03:20:34.496Z,965.71
2018-04-11T03:21:34.738Z,965.68
2018-04-11T03:22:34.979Z,965.71
2018-04-11T03:23:35.219Z,965.71
2018-04-11T03:24:35.462Z,965.71
2018-04-11T03:25:35.702Z,965.77
2018-04-11T03:26:35.945Z,965.73
2018-04-11T03:27:36.187Z,965.77
2018-04-11T03:28:36.427Z,965.74
2018-04-11T03:29:36.671Z,965.78
2018-04-11T03:30:36.912Z,965.76
2018-04-11T03:31:37.153Z,965.69
2018-04-11T03:32:37.393Z,965.70
2018-04-11T03:33:37.634Z,965.69
2018-04-11T03:34:37.876Z,965.70
2018-04-11T03:35:38.117Z,965.72
2018-04-11T03:36:38.358Z,965.73
2018-04-11T03:37:38.603Z,965.73
2018-04-11T03:38:38.843Z,965.71
2018-04-11T03:39:39.080Z,965.75
2018-04-11T03:40:39.320Z,965.75
2018-04-11T03:41:39.562Z,965.79
2018-04-11T03:42:39.803Z,965.75
2018-04-11T03:43:40.045Z,965.78
2018-04-11T03:44:40.286Z,965.78
2018-04-11T03:45:40.533Z,965.77
2018-04-11T03:46:40.767Z,965.78
2018-04-11T03:47:41.007Z,965.78
2018-04-11T03:48:41.250Z,965.72
2018-04-11T03:49:41.491Z,965.76
2018-04-11T03:50:41.735Z,965.74
2018-04-11T03:51:41.974Z,965.73
2018-04-11T03:52:42.217Z,965.68
2018-04-11T03:53:42.458Z,965.70
2018-04-11T03:54:42.699Z,965.68
2018-04-11T03:55:42.940Z,965.71
2018-04-11T03:56:43.182Z,965.67
2018-04-11T03:57:43.424Z,965.68
2018-04-11T03:58:43.664Z,965.69
2018-04-11T03:59:43.906Z,965.71
2018-04-11T04:00:44.148Z,965.74
2018-04-11T04:01:44.421Z,965.76
2018-04-11T04:02:44.633Z,965.80
2018-04-11T04:03:44.867Z,965.80
2018-04-11T04:04:45.108Z,965.83
2018-04-11T04:05:45.348Z,965.85
2018-04-11T04:06:45.587Z,965.87
2018-04-11T04:07:45.837Z,965.92
2018-04-11T04:08:46.067Z,965.98
2018-04-11T04:09:46.308Z,965.97
2018-04-11T04:10:46.552Z,965.93
2018-04-11T04:11:46.790Z,965.93
2018-04-11T04:12:47.030Z,965.93
2018-04-11T04:13:47.329Z,965.92
2018-04-11T04:14:47.513Z,965.92
2018-04-11T04:15:47.755Z,965.92
2018-04-11T04:16:48.001Z,965.89
2018-04-11T04:17:48.244Z,965.92
2018-04-11T04:18:48.485Z,965.93
2018-04-11T04:19:48.781Z,965.96
2018-04-11T04:20:48.967Z,965.99
2018-04-11T04:21:49.211Z,965.98
2018-04-11T04:22:49.448Z,965.93
2018-04-11T04:23:49.690Z,965.95
2018-04-11T04:24:49.930Z,965.97
2018-04-11T04:25:50.170Z,965.99
2018-04-11T04:26:50.410Z,966.00
2018-04-11T04:27:50.653Z,966.06
2018-04-11T04:28:50.892Z,966.04
2018-04-11T04:29:51.132Z,966.01
2018-04-11T04:30:51.373Z,966.02
2018-04-11T04:31:51.612Z,966.03
2018-04-11T04:32:51.853Z,966.10
2018-04-11T04:33:52.092Z,966.12
2018-04-11T04:34:52.336Z,966.12
2018-04-11T04:35:52.575Z,966.13
2018-04-11T04:36:52.815Z,966.11
2018-04-11T04:37:53.055Z,966.11
2018-04-11T04:38:53.295Z,966.12
2018-04-11T04:39:53.534Z,966.11
2018-04-11T04:40:53.774Z,966.03
2018-04-11T04:41:54.014Z,966.06
2018-04-11T04:42:54.255Z,966.06
2018-04-11T04:43:54.496Z,966.10
2018-04-11T04:44:54.736Z,966.12
2018-04-11T04:45:54.981Z,966.16
2018-04-11T04:46:55.231Z,966.20
2018-04-11T04:47:55.457Z,966.17
2018-04-11T04:48:55.698Z,966.20
2018-04-11T04:49:55.940Z,966.22
2018-04-11T04:50:56.178Z,966.23
2018-04-11T04:51:56.420Z,966.20
2018-04-11T04:52:56.662Z,966.22
2018-04-11T04:53:56.902Z,966.26
2018-04-11T04:54:57.145Z,966.22
2018-04-11T04:55:57.384Z,966.28
2018-04-11T04:56:57.628Z,966.26
2018-04-11T04:57:57.865Z,966.26
2018-04-11T04:58:58.108Z,966.25
2018-04-11T04:59:58.349Z,966.24
2018-04-11T05:00:58.590Z,966.23
2018-04-11T05:01:58.830Z,966.19
2018-04-11T05:02:59.077Z,966.22
2018-04-11T05:03:59.312Z,966.27
2018-04-11T05:04:59.555Z,966.34
2018-04-11T05:05:59.795Z,966.38
2018-04-11T05:07:00.038Z,966.39
2018-04-11T05:08:00.279Z,966.40
2018-04-11T05:09:00.519Z,966.41
2018-04-11T05:10:00.760Z,966.44
2018-04-11T05:11:01.000Z,966.42
2018-04-11T05:12:01.243Z,966.42
2018-04-11T05:13:01.486Z,966.40
2018-04-11T05:14:01.724Z,966.43
2018-04-11T05:15:01.964Z,966.46
2018-04-11T05:16:02.212Z,966.49
2018-04-11T05:17:02.439Z,966.52
2018-04-11T05:18:02.691Z,966.49
2018-04-11T05:19:02.922Z,966.53
2018-04-11T05:20:03.167Z,966.54
2018-04-11T05:21:03.405Z,966.56
2018-04-11T05:22:03.650Z,966.54
2018-04-11T05:23:03.891Z,966.56
2018-04-11T05:24:04.135Z,966.56
2018-04-11T05:25:04.377Z,966.58
2018-04-11T05:26:04.615Z,966.62
2018-04-11T05:27:04.860Z,966.61
2018-04-11T05:28:05.100Z,966.60
2018-04-11T05:29:05.338Z,966.57
2018-04-11T05:30:05.587Z,966.62
2018-04-11T05:31:05.825Z,966.64
2018-04-11T05:32:06.069Z,966.65
2018-04-11T05:33:06.308Z,966.68
2018-04-11T05:34:06.549Z,966.68
2018-04-11T05:35:06.791Z,966.65
2018-04-11T05:36:07.032Z,966.68
2018-04-11T05:37:07.273Z,966.71
2018-04-11T05:38:07.515Z,966.74
2018-04-11T05:39:07.756Z,966.74
2018-04-11T05:40:07.997Z,966.74
2018-04-11T05:41:08.238Z,966.75
2018-04-11T05:42:08.481Z,966.77
2018-04-11T05:43:08.721Z,966.77
2018-04-11T05:44:08.962Z,966.81
2018-04-11T05:45:09.204Z,966.82
2018-04-11T05:46:09.444Z,966.83
2018-04-11T05:47:09.687Z,966.86
2018-04-11T05:48:09.927Z,966.84
2018-04-11T05:49:10.182Z,966.88
2018-04-11T05:50:10.408Z,966.86
2018-04-11T05:51:10.652Z,966.89
2018-04-11T05:52:10.888Z,966.91
2018-04-11T05:53:11.255Z,966.91
2018-04-11T05:54:11.550Z,966.91
2018-04-11T05:55:11.796Z,966.95
2018-04-11T05:56:12.035Z,966.98
2018-04-11T05:57:12.271Z,966.96
2018-04-11T05:58:12.513Z,966.97
2018-04-11T05:59:12.757Z,966.97
2018-04-11T06:00:12.993Z,966.96
2018-04-11T06:01:13.238Z,966.98
2018-04-11T06:02:13.475Z,966.98
2018-04-11T06:03:13.717Z,966.97
2018-04-11T06:04:14.069Z,966.96
2018-04-11T06:05:14.311Z,967.00
2018-04-11T06:06:14.553Z,967.02
2018-04-11T06:07:14.792Z,967.01
2018-04-11T06:08:15.089Z,967.02
2018-04-11T06:09:15.331Z,967.00
2018-04-11T06:10:15.580Z,967.01
2018-04-11T06:11:15.815Z,966.98
2018-04-11T06:12:16.056Z,967.04
2018-04-11T06:13:16.298Z,967.05
2018-04-11T06:14:16.538Z,967.06
2018-04-11T06:15:16.780Z,967.05
2018-04-11T06:16:17.021Z,967.08
2018-04-11T06:17:17.258Z,967.13
2018-04-11T06:18:17.498Z,967.14
2018-04-11T06:19:17.761Z,967.14
2018-04-11T06:20:18.002Z,967.17
2018-04-11T06:21:18.252Z,967.17
2018-04-11T06:22:18.477Z,967.18
2018-04-11T06:23:18.716Z,967.18
2018-04-11T06:24:18.989Z,967.21
2018-04-11T06:25:19.251Z,967.22
2018-04-11T06:26:19.497Z,967.25
2018-04-11T06:27:19.739Z,967.24
2018-04-11T06:28:19.981Z,967.26
2018-04-11T06:29:20.213Z,967.25
2018-04-11T06:30:20.452Z,967.24
2018-04-11T06:31:20.692Z,967.24
2018-04-11T06:32:21.318Z,967.28
2018-04-11T06:33:21.189Z,967.28
2018-04-11T06:34:21.431Z,967.25
2018-04-11T06:35:21.666Z,967.22
2018-04-11T06:36:21.907Z,967.26
2018-04-11T06:37:22.142Z,967.24
2018-04-11T06:38:22.384Z,967.22
2018-04-11T06:39:22.624Z,967.24
2018-04-11T06:40:22.859Z,967.24
2018-04-11T06:41:23.118Z,967.22
2018-04-11T06:42:23.328Z,967.25
2018-04-11T06:43:23.567Z,967.21
2018-04-11T06:44:23.808Z,967.20
2018-04-11T06:45:24.048Z,967.18
2018-04-11T06:46:24.275Z,967.22
2018-04-11T06:47:24.517Z,967.22
2018-04-11T06:48:24.756Z,967.20
2018-04-11T06:49:24.996Z,967.19
2018-04-11T06:50:25.244Z,967.19
2018-04-11T06:51:25.467Z,967.21
2018-04-11T06:52:25.708Z,967.18
2018-04-11T06:53:25.952Z,967.13
2018-04-11T06:54:26.187Z,967.17
2018-04-11T06:55:26.429Z,967.15
2018-04-11T06:56:26.676Z,967.24
2018-04-11T06:57:26.907Z,967.25
2018-04-11T06:58:27.145Z,967.26
2018-04-11T06:59:27.386Z,967.31
2018-04-11T07:00:27.624Z,967.25
2018-04-11T07:01:27.865Z,967.33
2018-04-11T07:02:28.105Z,967.36
2018-04-11T07:03:28.347Z,967.39
2018-04-11T07:04:28.584Z,967.37
2018-04-11T07:05:28.825Z,967.40
2018-04-11T07:06:29.064Z,967.41
2018-04-11T07:07:29.305Z,967.44
2018-04-11T07:08:29.548Z,967.39
2018-04-11T07:09:29.796Z,967.46
2018-04-11T07:10:30.015Z,967.47
2018-04-11T07:11:30.257Z,967.48
2018-04-11T07:12:30.495Z,967.52
2018-04-11T07:13:30.733Z,967.56
2018-04-11T07:14:30.964Z,967.51
2018-04-11T07:15:31.205Z,967.52
2018-04-11T07:16:31.447Z,967.51
2018-04-11T11:11:40.102Z,969.27
2018-04-11T11:12:40.348Z,969.31
2018-04-11T11:13:40.590Z,969.71
2018-04-11T11:14:40.833Z,969.39
2018-04-11T11:15:41.079Z,969.29
2018-04-11T11:16:41.327Z,969.11
2018-04-11T11:17:41.568Z,969.15
2018-04-11T11:18:41.815Z,969.45
2018-04-11T11:19:42.063Z,969.33
2018-04-11T11:20:42.314Z,969.09
2018-04-11T11:21:42.561Z,969.05
2018-04-11T11:22:42.809Z,968.98
2018-04-11T11:23:43.056Z,969.08
2018-04-11T11:24:43.343Z,969.06
2018-04-11T11:25:43.595Z,969.17
2018-04-11T11:26:43.845Z,968.92
2018-04-11T11:27:44.095Z,969.59
2018-04-11T11:28:44.425Z,969.08
2018-04-11T11:29:44.683Z,968.94
2018-04-11T11:30:44.928Z,968.79
2018-04-11T11:31:45.179Z,968.67
2018-04-11T11:32:45.429Z,968.61
2018-04-11T11:33:45.683Z,968.64
2018-04-11T11:34:45.998Z,968.71
2018-04-11T11:35:46.249Z,968.69
2018-04-11T11:36:46.498Z,968.67
2018-04-11T11:37:46.751Z,968.71
2018-04-11T11:38:47.061Z,968.63
2018-04-11T11:39:47.259Z,968.60
2018-04-11T11:40:47.610Z,968.60
2018-04-11T11:41:47.865Z,968.83
2018-04-11T11:42:48.118Z,968.58
2018-04-11T11:43:48.362Z,968.67
2018-04-11T11:44:48.619Z,968.73
2018-04-11T11:45:48.871Z,968.98
2018-04-11T11:46:49.121Z,968.62
2018-04-11T11:47:49.389Z,968.62
2018-04-11T11:48:49.643Z,968.68
2018-04-11T11:49:49.893Z,968.72
2018-04-11T11:50:50.141Z,968.86
2018-04-11T11:51:50.391Z,968.67
2018-04-11T11:52:50.645Z,968.79
2018-04-11T11:53:50.923Z,968.63
2018-04-11T11:54:51.205Z,968.52
2018-04-11T11:55:51.474Z,968.84
2018-04-11T11:56:51.753Z,968.64
2018-04-11T11:57:52.008Z,968.83
2018-04-11T11:58:52.261Z,968.80
2018-04-11T11:59:52.511Z,968.52
2018-04-11T12:00:52.811Z,968.41
2018-04-11T12:01:53.011Z,968.47
2018-04-11T12:02:53.286Z,968.61
2018-04-11T12:03:53.585Z,968.47
2018-04-11T12:04:53.841Z,968.44
2018-04-11T12:05:54.148Z,968.50
2018-04-11T12:06:54.393Z,968.54
2018-04-11T12:07:54.641Z,968.40
2018-04-11T12:08:54.890Z,968.35
2018-04-11T12:09:55.198Z,968.36
2018-04-11T12:10:55.451Z,968.31
2018-04-11T12:11:55.744Z,968.27
2018-04-11T12:12:55.979Z,968.22
2018-04-11T12:13:56.225Z,968.31
2018-04-11T12:14:56.479Z,968.59
2018-04-11T12:15:56.728Z,968.56
2018-04-11T12:16:57.041Z,968.57
2018-04-11T12:17:57.289Z,968.56
2018-04-11T12:18:57.587Z,968.54
2018-04-11T12:19:57.831Z,968.57
2018-04-11T12:20:58.087Z,968.59
2018-04-11T12:21:58.355Z,968.57
2018-04-11T12:22:58.645Z,968.56
2018-04-11T12:23:58.896Z,968.59
2018-04-11T12:24:59.146Z,968.49
2018-04-11T12:25:59.399Z,968.49
2018-04-11T12:26:59.651Z,968.56
2018-04-11T12:27:59.904Z,968.38
2018-04-11T12:29:00.151Z,968.24
2018-04-11T12:30:00.496Z,968.24
2018-04-11T12:31:00.688Z,968.32
2018-04-11T12:32:01.018Z,968.22
2018-04-11T12:33:01.261Z,968.18
2018-04-11T12:34:01.605Z,968.50
2018-04-11T12:35:01.856Z,968.43
2018-04-11T12:36:02.113Z,968.16
2018-04-11T12:37:02.365Z,968.15
2018-04-11T12:38:02.616Z,968.16
2018-04-11T12:39:02.872Z,968.08
2018-04-11T12:40:03.121Z,968.09
2018-04-11T12:41:03.374Z,968.15
2018-04-11T12:42:03.625Z,968.08
2018-04-11T12:43:03.876Z,968.05
2018-04-11T12:44:04.129Z,968.14
2018-04-11T12:45:04.380Z,968.11
2018-04-11T12:46:04.635Z,968.45
2018-04-11T12:47:04.886Z,968.36
2018-04-11T12:48:05.136Z,968.36
2018-04-11T12:49:05.385Z,968.07
2018-04-11T12:50:05.635Z,968.37
2018-04-11T12:51:05.896Z,968.02
2018-04-11T12:52:06.139Z,968.04
2018-04-11T12:53:06.393Z,968.33
2018-04-11T12:54:06.644Z,968.34
2018-04-11T12:55:06.904Z,968.36
2018-04-11T12:56:07.143Z,968.26
2018-04-11T12:57:07.399Z,968.33
2018-04-11T12:58:07.651Z,968.36
2018-04-11T12:59:07.899Z,968.33
2018-04-11T13:00:08.151Z,968.31
2018-04-11T13:01:08.414Z,968.30
2018-04-11T13:02:08.649Z,968.32
2018-04-11T13:03:08.903Z,968.28
2018-04-11T13:04:09.149Z,968.32
2018-04-11T13:05:09.400Z,968.32
2018-04-11T13:06:09.654Z,968.33
2018-04-11T13:07:09.900Z,968.34
2018-04-11T13:08:10.151Z,968.35
2018-04-11T13:09:10.401Z,968.29
2018-04-11T13:10:10.651Z,968.16
2018-04-11T13:11:10.903Z,968.12
2018-04-11T13:12:11.156Z,967.99
2018-04-11T13:13:11.407Z,968.01
2018-04-11T13:14:11.658Z,967.98
2018-04-11T13:15:11.911Z,967.99
2018-04-11T13:16:12.165Z,967.96
2018-04-11T13:17:12.414Z,967.94
2018-04-11T13:18:12.673Z,968.00
2018-04-11T13:19:12.920Z,968.03
2018-04-11T13:20:13.173Z,967.93
2018-04-11T13:21:13.425Z,968.19
2018-04-11T13:22:13.677Z,968.10
2018-04-11T13:23:13.930Z,968.05
2018-04-11T13:24:14.185Z,967.92
2018-04-11T13:25:14.443Z,967.84
2018-04-11T13:26:14.695Z,967.82
2018-04-11T13:27:14.948Z,967.82
2018-04-11T13:28:15.203Z,967.76
2018-04-11T13:29:15.456Z,967.78
2018-04-11T13:30:15.705Z,967.72
2018-04-11T13:31:15.963Z,967.75
2018-04-11T13:32:16.215Z,967.67
2018-04-11T13:33:16.467Z,967.94
2018-04-11T13:34:16.716Z,967.97
2018-04-11T13:35:16.966Z,968.02
2018-04-11T13:36:17.215Z,967.92
2018-04-11T13:37:17.464Z,967.95
2018-04-11T13:38:17.717Z,967.99
2018-04-11T13:39:17.968Z,968.00
2018-04-11T13:40:18.303Z,967.99
2018-04-11T13:41:18.467Z,967.97
2018-04-11T13:42:18.712Z,967.91
2018-04-11T13:43:18.962Z,967.95
2018-04-11T13:44:19.220Z,967.94
2018-04-11T13:45:19.472Z,967.91
2018-04-11T13:46:19.720Z,967.91
2018-04-11T13:47:19.978Z,967.90
2018-04-11T13:48:20.224Z,967.91
2018-04-11T13:49:20.476Z,967.85
2018-04-11T13:50:20.728Z,967.87
2018-04-11T13:51:20.977Z,967.85
2018-04-11T13:52:21.230Z,967.87
2018-04-11T13:53:21.480Z,967.86
2018-04-11T13:54:21.734Z,967.87
2018-04-11T13:55:21.975Z,967.83
2018-04-11T13:56:22.235Z,967.77
2018-04-11T13:57:22.488Z,967.79
2018-04-11T13:58:22.740Z,967.78
2018-04-11T13:59:22.997Z,967.80
2018-04-11T14:00:23.247Z,967.81
2018-04-11T14:01:23.500Z,967.80
2018-04-11T14:02:23.754Z,967.71
2018-04-11T14:03:24.006Z,967.71
2018-04-11T14:04:24.257Z,967.70
2018-04-11T14:05:24.505Z,967.66
2018-04-11T14:06:24.761Z,967.59
2018-04-11T14:07:25.017Z,967.55
2018-04-11T14:08:25.265Z,967.60
2018-04-11T14:09:25.540Z,967.58
2018-04-11T14:10:25.772Z,967.58
2018-04-11T14:11:26.024Z,967.55
2018-04-11T14:12:26.270Z,967.63
2018-04-11T14:13:26.521Z,967.61
2018-04-11T14:14:26.793Z,967.59
2018-04-11T14:15:27.025Z,967.58
2018-04-11T14:16:27.277Z,967.57
2018-04-11T14:17:27.529Z,967.59
2018-04-11T14:18:27.781Z,967.58
2018-04-11T14:19:28.033Z,967.57
2018-04-11T14:20:28.288Z,967.55
2018-04-11T14:21:28.541Z,967.55
2018-04-11T14:22:28.795Z,967.59
2018-04-11T14:23:29.045Z,967.58
2018-04-11T14:24:29.297Z,967.51
2018-04-11T14:25:29.686Z,967.60
2018-04-11T14:26:29.801Z,967.41
2018-04-11T14:27:30.053Z,967.62
2018-04-11T14:28:30.402Z,967.61
2018-04-11T14:29:30.664Z,967.65
2018-04-11T14:30:30.916Z,967.64
2018-04-11T14:31:31.215Z,967.61
2018-04-11T14:32:31.417Z,967.61
2018-04-11T14:33:31.671Z,967.61
2018-04-11T14:34:31.924Z,967.63
2018-04-11T14:35:32.172Z,967.61
2018-04-11T14:36:32.424Z,967.62
2018-04-11T14:37:32.676Z,967.60
2018-04-11T14:38:32.930Z,967.49
2018-04-11T14:39:33.182Z,967.61
2018-04-11T14:40:33.431Z,967.60
2018-04-11T14:41:33.686Z,967.54
2018-04-11T14:42:33.941Z,967.54
2018-04-11T14:43:34.196Z,967.54
2018-04-11T14:44:34.450Z,967.50
2018-04-11T14:45:34.705Z,967.53
2018-04-11T14:46:34.954Z,967.52
2018-04-11T14:47:35.206Z,967.52
2018-04-11T14:48:35.457Z,967.55
2018-04-11T14:49:35.711Z,967.56
2018-04-11T14:50:35.963Z,967.56
2018-04-11T14:51:36.217Z,967.55
2018-04-11T14:52:36.466Z,967.52
2018-04-11T14:53:36.721Z,967.53
2018-04-11T14:54:36.972Z,967.53
2018-04-11T14:55:37.224Z,967.46
2018-04-11T14:56:37.473Z,967.46
2018-04-11T14:57:37.727Z,967.51
2018-04-11T14:58:37.977Z,967.51
2018-04-11T14:59:38.229Z,967.49
2018-04-11T15:00:38.479Z,967.49
2018-04-11T15:01:38.726Z,967.45
2018-04-11T15:02:38.978Z,967.34
2018-04-11T15:03:39.232Z,967.39
2018-04-11T15:04:39.482Z,967.41
2018-04-11T15:05:39.733Z,967.32
2018-04-11T15:06:39.986Z,967.34
2018-04-11T15:07:40.236Z,967.25
2018-04-11T15:08:40.488Z,967.26
2018-04-11T15:09:40.738Z,967.25
2018-04-11T15:10:40.991Z,967.18
2018-04-11T15:11:41.243Z,967.19
2018-04-11T15:12:41.495Z,967.19
2018-04-11T15:13:41.749Z,967.20
2018-04-11T15:14:41.998Z,967.17
2018-04-11T15:15:42.241Z,967.21
2018-04-11T15:16:42.491Z,967.18
2018-04-11T15:17:42.740Z,967.22
2018-04-11T15:18:42.989Z,967.13
2018-04-11T15:19:43.239Z,967.17
2018-04-11T15:20:43.489Z,967.19
2018-04-11T15:21:43.746Z,967.19
2018-04-11T15:22:43.984Z,967.22
2018-04-11T15:23:44.241Z,967.14
2018-04-11T15:24:44.480Z,967.16
2018-04-11T15:25:44.728Z,967.12
2018-04-11T15:26:44.977Z,967.13
2018-04-11T15:27:45.240Z,967.13
2018-04-11T15:28:45.473Z,967.09
2018-04-11T15:29:45.723Z,967.10
2018-04-11T15:30:45.971Z,967.10
2018-04-11T15:31:46.221Z,967.14
2018-04-11T15:32:46.464Z,967.12
2018-04-11T15:33:46.714Z,967.13
2018-04-11T15:34:46.963Z,967.10
2018-04-11T15:35:47.262Z,967.14
2018-04-11T15:36:47.541Z,967.04
2018-04-11T15:37:47.792Z,967.10
2018-04-11T15:38:48.041Z,967.08
2018-04-11T15:39:48.291Z,967.09
2018-04-11T15:40:48.547Z,967.07
2018-04-11T15:41:48.784Z,967.07
2018-04-11T15:42:49.065Z,967.06
2018-04-11T15:43:49.312Z,967.00
2018-04-11T15:44:49.578Z,966.99
2018-04-11T15:45:49.801Z,966.92
2018-04-11T15:46:50.047Z,967.02
2018-04-11T15:47:50.312Z,967.04
2018-04-11T15:48:50.556Z,967.06
2018-04-11T15:49:50.801Z,967.05
2018-04-11T15:50:51.044Z,966.99
2018-04-11T15:51:51.285Z,967.04
2018-04-11T15:52:51.531Z,966.97
2018-04-11T15:53:51.780Z,967.06
2018-04-11T15:54:52.029Z,967.03
2018-04-11T15:55:52.270Z,967.04
2018-04-11T15:56:52.512Z,967.03
2018-04-11T15:57:52.801Z,966.96
2018-04-11T15:58:53.010Z,967.02
2018-04-11T15:59:53.255Z,966.96
2018-04-11T16:00:53.501Z,966.98
2018-04-11T16:01:54.029Z,966.92
2018-04-11T16:02:54.036Z,966.97
2018-04-11T16:03:54.279Z,966.98
2018-04-11T16:04:54.523Z,966.99
2018-04-11T16:05:54.769Z,967.00
2018-04-11T16:06:55.011Z,967.04
2018-04-11T16:07:55.258Z,967.08
2018-04-11T16:08:55.503Z,967.07
2018-04-11T16:09:55.771Z,967.06
2018-04-11T16:10:56.016Z,967.06
2018-04-11T16:11:56.387Z,967.08
2018-04-11T16:12:56.639Z,967.07
2018-04-11T16:13:56.882Z,967.08
2018-04-11T16:14:57.127Z,967.06
2018-04-11T16:15:57.374Z,967.09
2018-04-11T16:16:57.617Z,967.05
2018-04-11T16:17:57.865Z,967.05
2018-04-11T16:18:58.110Z,967.12
2018-04-11T16:19:58.360Z,967.05
2018-04-11T16:20:58.601Z,967.04
2018-04-11T16:21:58.888Z,967.00
2018-04-11T16:22:59.136Z,967.07
2018-04-11T16:23:59.429Z,967.07
2018-04-11T16:24:59.692Z,967.05
2018-04-11T16:26:00.003Z,967.03